Saint-Jerome, Canada
Current Conditions -  °F | °C
As of 10:00 PM on Monday 26 Jan 2015 (Local Time) from CYMX Reporting Station
Few Clouds Few Clouds  
Wind Chill: -8°   Ceiling: Unl
Heat Index:   Visibility: 25mi
Dew Point: -11°   Wind: 5mph
Humidity: 56%   Direction: NA
Pressure: 30.18"   Gusts: NA
Location:  45.77°N, 74°W
Report Text: CYMX 270300Z VRB04KT 25SM FEW250 M17/M24 A3018 RMK CI2 SLP228
Loading
Personal Weather Stations






























Interactive Weather Map New forecast layout! Learn more

10-Day Weather Forecast

Advertisements
Track Severe Weather on mobile